Hovedside
METAR-TAF:

METAR-TAF

Lufthavner :

Jakutsk, Russland

breddegrad: 62-01N, lengdegrad: 129-43E, høyde over havet: 103 m

Gjeldene værobservasjon

Denne rapporten ble laget for 17 minutter siden, klokken 19:00 UTC
Vind 4 kt fra Vest
Temperatur -25°C
Luftfuktighet 76%
Trykk 1016 hPa
Sikt 10 km eller mer
ingen skyer under 1500 m og ingen bygeskyer

METAR: UEEE 151900Z 27002MPS CAVOK M25/M28 Q1016 R23L/450155 NOSIG RMK QFE753

Tid: 04:17 (19:17 UTC)

Varsel

Denne rapporten ble laget for 2 timer og 17 minutter siden, klokken 17:00 UTC
Varsel gyldig fra 15. klokken 18 UTC til 16. klokken 24 UTC
Vind 6 kt fra Vest med vindkast opp mot 16 kt
Sikt 10 km eller mer
Spredte skyer i en høyde av 3000 ft
Brutte skyer i en høyde av 10000 ft
Midlertidig
fra 15. klokken 18 UTC til 16. klokken 03 UTC
Vind 2 kt fra skiftende retning
Sikt: 0300 m
i en høyde av 200 ft
snø, underkjølt tåke

TAF: UEEE 151700Z 1518/1624 28003G08MPS 9999 SCT030 BKN100 TEMPO 1518/1603 VRB01MPS 0300 SN FZFG VV002

Værobservasjoner og værvarsel for over 4000 flyplasser (METAR- og TAF-rapporter).

Tilgjengelige stasjoner er representert av de røde og gule prikkene på kartet.

Hold musepekeren over prikken for å se navnet på stasjonen.

Klikk så for å se værobservasjoner og -varsler.

For å forandre kartet kan du klikke på den grønne knappen med svart kryss for å zoome inn, på den grønne knappen med strek for å zoome ut, eller på de grønne pilene for å se tilstøtende kart.


METAR-TAF: